Terminal Aerodrome Forecast
Issued by NWS

Current Version | Previous Version | Graphics & Text | Print | Product List | Glossary On
Versions: 1 2 3 4 5 6 7 8 9 10 11 12 13 14 15 16 17 18 19 20 21 22 23 24 25
550
FTUS41 KRLX 301510 AAB
TAFCKB
TAF AMD
KCKB 301510Z 3015/0112 19007KT 4SM -RA OVC025
      TEMPO 3015/3019 2SM RA BR BKN015
     FM301900 22013G23KT 6SM -RA SCT025 OVC035
      TEMPO 3019/3023 3SM RA BR BKN025
     FM302300 19005G18KT P6SM BKN080=

USA.gov is the U.S. government's official web portal to all federal, state and local government web resources and services.